Time;durP1;ratioP1;P1;durP2;ratioP2;P2;SDS_P1;SDS_P2;PMS_P1;PMS_P2;Temp;Humidity;BMP_temperature;BMP_pressure;BME280_temperature;BME280_humidity;BME280_pressure;Samples;Min_cycle;Max_cycle;Signal;HPM_P1;HPM_P2
2021/11/08 00:00:08;;;;;;;35.20;9.53;;;9.00;97.20;;;;;;5053634;28;20904;-66
2021/11/08 00:02:36;;;;;;;26.50;11.10;;;9.00;97.30;;;;;;5053525;28;20863;-66
2021/11/08 00:05:07;;;;;;;26.53;11.30;;;9.00;97.30;;;;;;5053513;28;20837;-66
2021/11/08 00:07:37;;;;;;;26.87;10.10;;;9.00;97.40;;;;;;5053092;28;21006;-66
2021/11/08 00:10:08;;;;;;;29.23;10.70;;;9.10;97.30;;;;;;5053441;28;20516;-66
2021/11/08 00:12:36;;;;;;;20.17;9.80;;;9.10;97.30;;;;;;5052593;28;20539;-66
2021/11/08 00:15:09;;;;;;;23.30;9.70;;;9.10;97.20;;;;;;5053259;28;20446;-66
2021/11/08 00:17:59;;;;;;;28.50;9.30;;;9.10;97.00;;;;;;5053089;28;20472;-66
2021/11/08 00:20:42;;;;;;;28.53;8.90;;;9.10;96.90;;;;;;5053451;28;20433;-66
2021/11/08 00:23:10;;;;;;;23.30;8.87;;;9.10;96.80;;;;;;5052800;28;20564;-66
2021/11/08 00:25:39;;;;;;;23.83;9.10;;;9.10;96.60;;;;;;5053240;28;20861;-66
2021/11/08 00:28:07;;;;;;;21.60;7.73;;;9.10;96.60;;;;;;5053074;28;20477;-66
2021/11/08 00:30:37;;;;;;;28.40;9.27;;;9.10;96.50;;;;;;5053273;28;20462;-66
2021/11/08 00:33:08;;;;;;;23.13;8.10;;;9.00;96.30;;;;;;5052980;28;20944;-67
2021/11/08 00:35:36;;;;;;;28.27;8.47;;;9.00;96.30;;;;;;5052902;28;20434;-67
2021/11/08 00:38:04;;;;;;;24.37;8.00;;;9.00;96.40;;;;;;5053177;28;20564;-67
2021/11/08 00:40:32;;;;;;;20.67;8.20;;;9.00;96.30;;;;;;5052766;28;20563;-66
2021/11/08 00:43:13;;;;;;;25.20;7.47;;;8.90;96.30;;;;;;5052696;28;20533;-66
2021/11/08 00:45:45;;;;;;;18.43;7.40;;;8.90;96.30;;;;;;5052021;28;20529;-66
2021/11/08 00:48:15;;;;;;;17.20;6.70;;;8.90;96.40;;;;;;5051930;28;20449;-66
2021/11/08 00:50:49;;;;;;;25.23;7.80;;;8.90;96.20;;;;;;5052031;28;20460;-66
2021/11/08 00:53:19;;;;;;;16.10;6.00;;;8.90;96.20;;;;;;5051961;28;20474;-66
2021/11/08 00:55:47;;;;;;;22.57;6.97;;;8.90;96.10;;;;;;5052670;28;20441;-66
2021/11/08 00:58:19;;;;;;;21.23;7.13;;;8.90;96.20;;;;;;5053808;28;20495;-66
2021/11/08 01:00:51;;;;;;;18.77;6.53;;;8.90;96.20;;;;;;5055651;28;20939;-66
2021/11/08 01:03:21;;;;;;;17.23;6.30;;;8.90;96.20;;;;;;5055630;28;20465;-66
2021/11/08 01:05:49;;;;;;;24.67;7.50;;;8.90;96.50;;;;;;5055492;28;20456;-66
2021/11/08 01:08:17;;;;;;;21.87;7.03;;;8.90;96.10;;;;;;5055694;28;20512;-66
2021/11/08 01:10:52;;;;;;;25.40;7.13;;;8.80;96.00;;;;;;5055897;28;20445;-66
2021/11/08 01:13:20;;;;;;;23.93;6.93;;;8.80;96.10;;;;;;5055567;28;20491;-66
2021/11/08 01:15:47;;;;;;;24.97;8.33;;;8.80;96.20;;;;;;5055775;28;20472;-66
2021/11/08 01:18:18;;;;;;;25.20;7.13;;;8.70;96.40;;;;;;5055702;28;20485;-66
2021/11/08 01:20:47;;;;;;;38.87;8.10;;;8.70;96.70;;;;;;5055483;28;20426;-66
2021/11/08 01:23:20;;;;;;;23.30;7.83;;;8.70;97.00;;;;;;5055481;28;20530;-65
2021/11/08 01:25:56;;;;;;;22.13;7.57;;;8.80;97.00;;;;;;5055338;28;20430;-65
2021/11/08 01:28:31;;;;;;;19.77;6.00;;;8.80;97.10;;;;;;5055320;28;20433;-66
2021/11/08 01:31:03;;;;;;;31.93;7.70;;;8.80;97.10;;;;;;5055623;28;20437;-65
2021/11/08 01:33:33;;;;;;;16.50;6.10;;;8.80;97.20;;;;;;5054974;28;20814;-66
2021/11/08 01:36:13;;;;;;;25.03;7.17;;;8.80;97.20;;;;;;5055211;28;20449;-66
2021/11/08 01:38:44;;;;;;;22.20;7.50;;;8.90;97.30;;;;;;5055432;28;20516;-66
2021/11/08 01:41:13;;;;;;;22.00;8.07;;;8.90;97.10;;;;;;5055108;28;20832;-65
2021/11/08 01:43:43;;;;;;;22.50;7.73;;;8.90;96.90;;;;;;5054992;28;20458;-66
2021/11/08 01:46:12;;;;;;;24.80;7.93;;;9.00;96.90;;;;;;5055910;28;20921;-66
2021/11/08 01:48:42;;;;;;;20.23;7.17;;;9.00;96.70;;;;;;5054974;28;20461;-66
2021/11/08 01:51:13;;;;;;;19.33;7.47;;;9.00;96.60;;;;;;5054777;28;20441;-66
2021/11/08 01:53:42;;;;;;;25.03;8.73;;;9.00;96.60;;;;;;5054772;28;20469;-66
2021/11/08 01:56:12;;;;;;;26.70;7.53;;;8.90;96.60;;;;;;5054672;28;20937;-65
2021/11/08 01:58:40;;;;;;;21.20;8.60;;;9.00;96.70;;;;;;5054670;28;20462;-65
2021/11/08 02:01:11;;;;;;;20.53;8.40;;;9.00;96.80;;;;;;5054480;28;20462;-65
2021/11/08 02:03:40;;;;;;;22.87;7.40;;;9.00;96.80;;;;;;5054434;28;20983;-66
2021/11/08 02:06:08;;;;;;;27.70;8.90;;;9.00;96.80;;;;;;5054636;28;20450;-66
2021/11/08 02:08:38;;;;;;;23.00;8.27;;;9.00;96.90;;;;;;5053531;28;20449;-66
2021/11/08 02:11:07;;;;;;;23.57;7.67;;;9.00;97.00;;;;;;5054369;28;20499;-65
2021/11/08 02:13:35;;;;;;;20.97;6.50;;;8.90;97.30;;;;;;5054242;28;20476;-66
2021/11/08 02:16:02;;;;;;;22.70;7.93;;;9.00;97.40;;;;;;5054391;28;20450;-66
2021/11/08 02:18:34;;;;;;;22.13;7.43;;;9.00;97.40;;;;;;5054269;28;20477;-66
2021/11/08 02:21:07;;;;;;;24.47;7.57;;;8.90;97.30;;;;;;5054197;28;20438;-66
2021/11/08 02:23:35;;;;;;;24.43;8.20;;;9.00;97.30;;;;;;5054694;28;20473;-66
2021/11/08 02:26:05;;;;;;;24.27;7.23;;;9.00;97.40;;;;;;5054127;28;20994;-66
2021/11/08 02:28:33;;;;;;;24.43;7.57;;;9.00;97.40;;;;;;5054124;28;20981;-66
2021/11/08 02:31:01;;;;;;;23.23;7.97;;;9.00;97.40;;;;;;5054094;28;20441;-66
2021/11/08 02:33:31;;;;;;;26.93;9.53;;;9.00;97.40;;;;;;5054014;28;20470;-66
2021/11/08 02:36:02;;;;;;;25.77;7.40;;;9.00;97.40;;;;;;5054414;28;20545;-66
2021/11/08 02:38:34;;;;;;;25.47;9.23;;;9.00;97.50;;;;;;5053864;28;20469;-66
2021/11/08 02:41:08;;;;;;;24.70;8.83;;;9.00;97.40;;;;;;5053796;28;20458;-66
2021/11/08 02:43:36;;;;;;;19.70;8.13;;;9.00;97.30;;;;;;5053833;28;20512;-66
2021/11/08 02:46:07;;;;;;;26.10;7.93;;;9.00;97.50;;;;;;5053798;28;20457;-66
2021/11/08 02:48:38;;;;;;;25.50;8.67;;;9.00;97.50;;;;;;5054075;28;20548;-66
2021/11/08 02:51:12;;;;;;;23.83;7.63;;;9.00;97.40;;;;;;5054021;28;20936;-66
2021/11/08 02:53:43;;;;;;;26.60;7.77;;;9.00;97.50;;;;;;5053896;28;20883;-66
2021/11/08 02:56:11;;;;;;;28.23;8.60;;;9.00;97.60;;;;;;5053716;28;20446;-66
2021/11/08 02:58:43;;;;;;;25.37;7.63;;;8.90;97.50;;;;;;5053569;28;20485;-66
2021/11/08 03:01:15;;;;;;;22.00;7.70;;;9.00;97.70;;;;;;5053907;28;20487;-66
2021/11/08 03:03:46;;;;;;;28.53;8.23;;;9.10;97.70;;;;;;5053494;28;20565;-66
2021/11/08 03:06:19;;;;;;;18.57;7.27;;;9.00;97.50;;;;;;5053528;28;20949;-66
2021/11/08 03:08:49;;;;;;;23.03;7.10;;;9.00;97.50;;;;;;5053586;28;20444;-66
2021/11/08 03:11:18;;;;;;;22.17;7.57;;;9.00;97.60;;;;;;5053327;28;20445;-66
2021/11/08 03:13:57;;;;;;;18.07;7.20;;;9.00;97.90;;;;;;5053243;28;20528;-66
2021/11/08 03:16:32;;;;;;;23.83;8.87;;;9.00;97.50;;;;;;5053435;28;20901;-66
2021/11/08 03:19:13;;;;;;;23.13;7.50;;;9.00;97.60;;;;;;5053196;28;20471;-66
2021/11/08 03:21:41;;;;;;;29.50;6.80;;;9.10;97.60;;;;;;5052508;28;20429;-66
2021/11/08 03:24:16;;;;;;;24.37;7.40;;;9.10;97.50;;;;;;5053147;28;20469;-66
2021/11/08 03:26:47;;;;;;;23.30;8.70;;;9.10;97.50;;;;;;5053464;28;20521;-66
2021/11/08 03:29:15;;;;;;;26.73;7.43;;;9.10;97.30;;;;;;5053699;28;20464;-66
2021/11/08 03:31:45;;;;;;;24.30;8.50;;;9.10;97.30;;;;;;5053136;28;20449;-66
2021/11/08 03:34:17;;;;;;;28.73;9.07;;;9.10;97.30;;;;;;5053095;28;20526;-66
2021/11/08 03:36:47;;;;;;;21.03;7.97;;;9.10;97.20;;;;;;5052593;28;20918;-66
2021/11/08 03:39:17;;;;;;;22.10;7.47;;;9.10;97.20;;;;;;5053536;28;20503;-66
2021/11/08 03:41:47;;;;;;;38.87;9.70;;;9.10;97.20;;;;;;5052750;28;20501;-66
2021/11/08 03:44:17;;;;;;;27.60;8.10;;;9.10;97.30;;;;;;5053202;28;20434;-66
2021/11/08 03:46:45;;;;;;;25.67;8.57;;;9.10;97.10;;;;;;5052988;28;20520;-66
2021/11/08 03:49:15;;;;;;;28.07;8.47;;;9.10;97.10;;;;;;5052905;28;20434;-66
2021/11/08 03:51:44;;;;;;;17.17;7.93;;;9.10;97.10;;;;;;5052831;28;20449;-66
2021/11/08 03:54:13;;;;;;;33.17;6.67;;;9.10;97.10;;;;;;5052901;28;20555;-66
2021/11/08 03:56:43;;;;;;;48.87;8.50;;;9.20;97.10;;;;;;5053099;28;20791;-66
2021/11/08 03:59:12;;;;;;;24.13;7.37;;;9.20;97.10;;;;;;5052949;28;20485;-66
2021/11/08 04:01:40;;;;;;;25.00;7.90;;;9.20;97.00;;;;;;5052722;28;20540;-65
2021/11/08 04:04:09;;;;;;;28.53;7.53;;;9.30;96.80;;;;;;5052714;28;20468;-66
2021/11/08 04:06:39;;;;;;;23.27;7.43;;;9.30;96.90;;;;;;5052692;28;20807;-66
2021/11/08 04:09:11;;;;;;;26.43;6.60;;;9.30;96.80;;;;;;5052686;28;20864;-66
2021/11/08 04:11:45;;;;;;;23.93;6.63;;;9.30;96.80;;;;;;5052683;28;20928;-66
2021/11/08 04:14:15;;;;;;;33.73;8.80;;;9.40;96.70;;;;;;5052447;28;20552;-66
2021/11/08 04:16:44;;;;;;;27.00;7.67;;;9.40;96.40;;;;;;5053055;28;20772;-65
2021/11/08 04:19:15;;;;;;;38.90;8.87;;;9.40;96.40;;;;;;5052573;28;20544;-65
2021/11/08 04:21:44;;;;;;;21.87;8.10;;;9.40;96.40;;;;;;5052955;28;20941;-65
2021/11/08 04:24:13;;;;;;;22.37;7.73;;;9.40;96.40;;;;;;5052802;28;20961;-66
2021/11/08 04:26:42;;;;;;;22.90;8.10;;;9.40;96.40;;;;;;5052496;28;20929;-66
2021/11/08 04:29:13;;;;;;;32.30;8.50;;;9.40;96.30;;;;;;5052968;28;20467;-65
2021/11/08 04:31:42;;;;;;;31.30;7.93;;;9.40;96.50;;;;;;5054521;28;20444;-65
2021/11/08 04:34:20;;;;;;;24.13;8.47;;;9.40;96.30;;;;;;5056511;28;20469;-66
2021/11/08 04:37:08;;;;;;;24.43;7.70;;;9.40;96.50;;;;;;5056192;28;20797;-66
2021/11/08 04:39:59;;;;;;;21.30;6.80;;;9.40;96.50;;;;;;5056296;28;20503;-66
2021/11/08 04:42:32;;;;;;;24.80;7.87;;;9.40;96.50;;;;;;5056088;28;20488;-66
2021/11/08 04:45:22;;;;;;;25.30;7.20;;;9.30;96.40;;;;;;5056481;28;20483;-66
2021/11/08 04:50:46;;;;;;;25.43;8.40;;;9.30;96.60;;;;;;5030974;28;20512;-66
2021/11/08 04:53:25;;;;;;;29.80;8.20;;;9.30;97.00;;;;;;5056414;28;20473;-66
2021/11/08 05:21:15;;;;;;;23.23;6.63;;;9.50;96.20;;;;;;5055899;28;20491;-66
2021/11/08 05:24:14;;;;;;;26.97;7.20;;;9.50;96.00;;;;;;5055535;28;20465;-66
2021/11/08 05:32:13;;;;;;;20.87;6.43;;;9.50;96.00;;;;;;5055255;28;20441;-66
2021/11/08 05:34:45;;;;;;;19.80;7.03;;;9.50;95.90;;;;;;5055075;28;20446;-65
2021/11/08 05:37:14;;;;;;;23.17;7.50;;;9.40;95.90;;;;;;5055217;28;20438;-65
2021/11/08 05:39:47;;;;;;;18.53;6.53;;;9.40;96.10;;;;;;5054935;28;20438;-65
2021/11/08 05:42:19;;;;;;;15.60;7.03;;;9.40;96.10;;;;;;5054950;28;20480;-66
2021/11/08 05:44:48;;;;;;;22.60;7.10;;;9.40;96.10;;;;;;5054143;28;20434;-65
2021/11/08 05:47:20;;;;;;;26.43;7.63;;;9.40;96.40;;;;;;5055011;28;20497;-65
2021/11/08 05:49:52;;;;;;;15.93;5.73;;;9.30;96.20;;;;;;5054649;28;20441;-66
2021/11/08 05:52:21;;;;;;;16.00;7.20;;;9.30;96.20;;;;;;5054760;28;20500;-66
2021/11/08 05:54:49;;;;;;;17.93;7.23;;;9.30;96.00;;;;;;5054765;28;20441;-65
2021/11/08 06:50:23;;;;;;;26.07;8.47;;;9.30;96.00;;;;;;5053907;28;20456;-65
2021/11/08 06:52:56;;;;;;;22.50;7.60;;;9.40;95.80;;;;;;5053567;28;21037;-65
2021/11/08 06:55:27;;;;;;;22.07;7.70;;;9.40;95.90;;;;;;5053958;28;20491;-65
2021/11/08 06:58:02;;;;;;;25.13;7.17;;;9.40;95.50;;;;;;5053557;28;20502;-65
2021/11/08 07:00:32;;;;;;;28.57;8.90;;;9.40;95.60;;;;;;5053937;28;20444;-65
2021/11/08 07:03:09;;;;;;;22.83;7.90;;;9.40;95.70;;;;;;5053752;28;20469;-65
2021/11/08 07:05:38;;;;;;;26.67;6.97;;;9.40;95.60;;;;;;5053520;28;20934;-65
2021/11/08 07:08:07;;;;;;;24.70;7.47;;;9.40;95.60;;;;;;5053434;28;20434;-65
2021/11/08 07:10:37;;;;;;;21.93;6.83;;;9.40;95.50;;;;;;5053345;28;20450;-65
2021/11/08 07:13:08;;;;;;;28.90;8.60;;;9.50;95.70;;;;;;5053330;28;20501;-65
2021/11/08 07:15:37;;;;;;;18.53;7.70;;;9.50;95.70;;;;;;5053406;28;20480;-65
2021/11/08 07:18:06;;;;;;;20.00;6.33;;;9.50;95.50;;;;;;5053174;28;20478;-65
2021/11/08 07:20:34;;;;;;;21.93;6.20;;;9.60;95.40;;;;;;5053473;28;20918;-65
2021/11/08 07:23:03;;;;;;;23.30;6.60;;;9.60;95.30;;;;;;5053227;28;20462;-65
2021/11/08 07:25:32;;;;;;;23.20;7.50;;;9.70;95.30;;;;;;5053047;28;20956;-65
2021/11/08 07:28:04;;;;;;;21.10;6.60;;;9.70;95.20;;;;;;5053083;28;20445;-65
2021/11/08 07:30:35;;;;;;;16.47;6.57;;;9.80;95.10;;;;;;5053043;28;20434;-65
2021/11/08 07:33:03;;;;;;;31.43;7.23;;;9.80;94.80;;;;;;5053204;28;20984;-65
2021/11/08 07:35:32;;;;;;;32.47;8.27;;;9.80;94.70;;;;;;5052944;28;20445;-65
2021/11/08 07:38:01;;;;;;;19.97;7.90;;;9.80;94.70;;;;;;5052812;28;20449;-65
2021/11/08 07:40:32;;;;;;;22.47;6.60;;;9.80;94.60;;;;;;5052752;28;20426;-65
2021/11/08 07:43:05;;;;;;;21.87;6.90;;;9.80;94.50;;;;;;5053037;28;20461;-65
2021/11/08 07:45:33;;;;;;;23.90;8.63;;;9.80;94.40;;;;;;5052931;28;20441;-65
2021/11/08 07:48:03;;;;;;;24.87;7.17;;;9.80;94.40;;;;;;5052773;28;20446;-65
2021/11/08 07:50:32;;;;;;;25.00;9.77;;;9.90;94.40;;;;;;5053103;28;20520;-66
2021/11/08 07:53:01;;;;;;;20.93;7.50;;;9.80;94.00;;;;;;5052677;28;20465;-66
2021/11/08 07:55:29;;;;;;;22.13;8.20;;;9.80;94.30;;;;;;5052714;28;20457;-66
2021/11/08 07:57:58;;;;;;;20.87;7.90;;;9.80;94.40;;;;;;5052637;28;20453;-65
2021/11/08 08:00:29;;;;;;;19.43;7.83;;;9.80;94.20;;;;;;5052578;28;20450;-65
2021/11/08 08:03:01;;;;;;;26.73;8.17;;;9.80;94.30;;;;;;5053045;28;20461;-65
2021/11/08 08:05:32;;;;;;;28.93;8.03;;;9.80;94.10;;;;;;5052571;28;20450;-65
2021/11/08 08:08:03;;;;;;;19.93;8.00;;;9.80;94.20;;;;;;5055504;28;20511;-65
2021/11/08 08:10:32;;;;;;;26.90;8.33;;;9.80;94.20;;;;;;5057035;28;20430;-65
2021/11/08 08:13:04;;;;;;;21.50;8.07;;;9.80;94.20;;;;;;5056598;28;20458;-65
2021/11/08 08:15:35;;;;;;;23.43;7.77;;;9.80;94.40;;;;;;5056614;28;20430;-65
2021/11/08 08:18:04;;;;;;;23.30;7.30;;;9.80;94.40;;;;;;5056594;28;20430;-65
2021/11/08 08:20:35;;;;;;;23.90;8.23;;;9.80;94.40;;;;;;5056745;28;20456;-65
2021/11/08 08:23:10;;;;;;;20.87;8.40;;;9.90;94.80;;;;;;5056486;28;20472;-65
2021/11/08 08:25:38;;;;;;;24.10;7.53;;;9.80;94.00;;;;;;5056426;28;20437;-65
2021/11/08 08:28:06;;;;;;;23.23;9.40;;;9.80;94.20;;;;;;5056447;28;20446;-65
2021/11/08 08:30:40;;;;;;;27.63;8.30;;;9.90;94.20;;;;;;5056902;28;20449;-65
2021/11/08 08:33:08;;;;;;;22.63;7.73;;;10.00;93.70;;;;;;5056939;28;20461;-65
2021/11/08 08:35:40;;;;;;;26.27;8.07;;;10.00;93.80;;;;;;5056563;28;20540;-65
2021/11/08 08:38:08;;;;;;;24.57;8.17;;;10.10;93.50;;;;;;5056227;28;20469;-65
2021/11/08 08:40:38;;;;;;;27.27;7.93;;;10.10;93.20;;;;;;5056370;28;20465;-66
2021/11/08 08:43:07;;;;;;;20.93;8.37;;;10.10;93.20;;;;;;5056266;28;20484;-65
2021/11/08 08:45:37;;;;;;;21.87;6.93;;;10.10;93.10;;;;;;5056303;28;20437;-65
2021/11/08 08:48:10;;;;;;;26.57;7.70;;;10.20;93.20;;;;;;5056176;28;20441;-66
2021/11/08 08:50:38;;;;;;;25.37;7.50;;;10.20;92.80;;;;;;5056377;28;20552;-66
2021/11/08 08:53:15;;;;;;;25.13;8.40;;;10.20;92.60;;;;;;5055979;28;20992;-65
2021/11/08 08:55:47;;;;;;;29.23;8.30;;;10.20;92.60;;;;;;5055869;28;20897;-65
2021/11/08 08:58:15;;;;;;;22.00;7.07;;;10.10;92.50;;;;;;5056016;28;20453;-65
2021/11/08 09:00:47;;;;;;;24.13;7.90;;;10.20;92.90;;;;;;5055752;28;20445;-65
2021/11/08 09:03:18;;;;;;;26.50;7.50;;;10.20;92.80;;;;;;5055723;28;20527;-65
2021/11/08 09:05:52;;;;;;;17.60;7.17;;;10.30;92.80;;;;;;5055590;28;20437;-65
2021/11/08 09:08:21;;;;;;;28.60;8.50;;;10.40;92.50;;;;;;5055790;28;20905;-65
2021/11/08 09:10:52;;;;;;;22.67;8.50;;;10.40;92.30;;;;;;5055629;28;20441;-65
2021/11/08 09:13:20;;;;;;;24.73;7.83;;;10.40;92.10;;;;;;5055318;28;20561;-65
2021/11/08 09:15:49;;;;;;;21.10;7.83;;;10.40;92.10;;;;;;5055473;28;20434;-65
2021/11/08 09:18:19;;;;;;;29.40;8.97;;;10.40;92.30;;;;;;5054092;28;20446;-65
2021/11/08 09:20:54;;;;;;;21.40;7.40;;;10.50;92.40;;;;;;5055642;28;20434;-65
2021/11/08 09:23:25;;;;;;;20.97;7.70;;;10.50;92.20;;;;;;5055455;28;20473;-65
2021/11/08 09:25:53;;;;;;;23.80;8.40;;;10.50;92.00;;;;;;5055373;28;20437;-65
2021/11/08 09:28:24;;;;;;;34.37;8.87;;;10.40;92.40;;;;;;5055294;28;20460;-65
2021/11/08 09:30:54;;;;;;;21.20;8.73;;;10.40;92.20;;;;;;5055208;28;20434;-65
2021/11/08 09:33:24;;;;;;;22.40;7.37;;;10.50;92.20;;;;;;5054650;28;20469;-65
2021/11/08 09:36:00;;;;;;;28.13;8.77;;;10.70;92.20;;;;;;5055033;28;20893;-65
2021/11/08 09:38:30;;;;;;;24.47;8.53;;;10.70;92.00;;;;;;5055149;28;20438;-65
2021/11/08 09:41:15;;;;;;;26.60;8.40;;;11.00;92.50;;;;;;5055619;28;20465;-65
2021/11/08 09:43:48;;;;;;;20.97;8.20;;;11.00;91.30;;;;;;5055249;28;20508;-66
2021/11/08 09:46:22;;;;;;;28.00;9.80;;;11.00;90.90;;;;;;5054952;28;20430;-66
2021/11/08 09:48:53;;;;;;;25.07;9.47;;;11.20;91.30;;;;;;5055190;28;20426;-65
2021/11/08 09:51:22;;;;;;;22.70;8.03;;;11.30;90.90;;;;;;5055299;28;20438;-65
2021/11/08 09:53:53;;;;;;;23.50;8.20;;;11.50;90.60;;;;;;5054801;28;20480;-66
2021/11/08 09:56:20;;;;;;;22.23;8.37;;;11.60;90.70;;;;;;5054764;28;20434;-66
2021/11/08 09:58:52;;;;;;;28.57;8.90;;;11.80;90.20;;;;;;5054941;28;20477;-66
2021/11/08 10:01:20;;;;;;;19.63;8.57;;;11.90;89.40;;;;;;5054737;28;20434;-66
2021/11/08 10:03:53;;;;;;;29.17;8.20;;;12.00;89.00;;;;;;5055040;28;20465;-66
2021/11/08 10:06:23;;;;;;;28.70;9.10;;;12.10;87.20;;;;;;5054857;28;20924;-66
2021/11/08 10:08:54;;;;;;;27.60;8.40;;;12.00;86.30;;;;;;5054520;28;20499;-66
2021/11/08 10:11:23;;;;;;;21.63;8.10;;;12.10;88.40;;;;;;5054839;28;20941;-66
2021/11/08 10:14:00;;;;;;;23.97;8.20;;;12.20;88.60;;;;;;5054580;28;20465;-66
2021/11/08 10:16:30;;;;;;;24.33;7.23;;;12.50;89.60;;;;;;5054978;28;20853;-66
2021/11/08 10:19:08;;;;;;;22.80;9.20;;;12.70;85.80;;;;;;5054489;28;20835;-66
2021/11/08 10:21:42;;;;;;;29.73;8.97;;;12.80;85.30;;;;;;5054683;28;20923;-66
2021/11/08 10:24:14;;;;;;;23.27;7.63;;;12.70;84.50;;;;;;5054793;28;20988;-66
2021/11/08 10:26:43;;;;;;;23.93;7.63;;;12.70;83.10;;;;;;5054341;28;20438;-66
2021/11/08 10:29:23;;;;;;;19.90;8.00;;;12.70;84.20;;;;;;5054237;28;20442;-66
2021/11/08 10:31:56;;;;;;;20.70;7.20;;;12.80;84.80;;;;;;5054234;28;20491;-66
2021/11/08 10:34:28;;;;;;;20.57;8.43;;;12.90;85.40;;;;;;5054424;28;20472;-66
2021/11/08 10:37:07;;;;;;;23.47;9.07;;;12.90;83.70;;;;;;5054116;28;21001;-66
2021/11/08 10:39:36;;;;;;;19.63;8.43;;;12.90;84.80;;;;;;5054181;28;20471;-66
2021/11/08 10:42:05;;;;;;;26.13;8.00;;;12.90;84.20;;;;;;5053909;28;20464;-66
2021/11/08 10:44:43;;;;;;;24.60;8.80;;;12.80;83.10;;;;;;5054061;28;20529;-66
2021/11/08 10:47:11;;;;;;;20.40;7.47;;;12.80;84.20;;;;;;5054308;28;20442;-66
2021/11/08 10:49:46;;;;;;;22.20;7.73;;;12.80;84.10;;;;;;5053884;28;20443;-66
2021/11/08 10:52:17;;;;;;;27.90;8.60;;;12.90;84.00;;;;;;5053782;28;20465;-66
2021/11/08 10:54:54;;;;;;;30.63;8.07;;;12.90;83.90;;;;;;5053759;28;20429;-66
2021/11/08 10:57:27;;;;;;;25.00;9.67;;;13.00;82.80;;;;;;5053786;28;20516;-66
2021/11/08 11:00:00;;;;;;;23.07;8.80;;;13.10;83.40;;;;;;5053619;28;20553;-66
2021/11/08 11:02:33;;;;;;;22.70;6.83;;;13.10;81.80;;;;;;5053566;28;20469;-66
2021/11/08 11:05:08;;;;;;;27.13;7.10;;;13.20;82.20;;;;;;5053854;28;20441;-66
2021/11/08 11:07:41;;;;;;;22.50;7.70;;;13.40;82.40;;;;;;5054234;28;20512;-66
2021/11/08 11:10:11;;;;;;;21.47;8.30;;;13.40;79.40;;;;;;5055269;28;20458;-66
2021/11/08 11:12:47;;;;;;;18.63;6.63;;;13.50;79.20;;;;;;5055656;28;20476;-66
2021/11/08 11:15:16;;;;;;;22.10;7.40;;;13.70;80.00;;;;;;5056171;28;20433;-66
2021/11/08 11:17:55;;;;;;;19.20;7.30;;;13.90;79.30;;;;;;5054399;28;20457;-66
2021/11/08 11:20:27;;;;;;;22.83;7.50;;;14.20;78.50;;;;;;5053828;28;20473;-66
2021/11/08 11:23:04;;;;;;;22.67;7.80;;;14.70;77.60;;;;;;5053710;28;20553;-66
2021/11/08 11:25:34;;;;;;;19.97;7.50;;;15.10;74.90;;;;;;5054348;28;20817;-66
2021/11/08 11:28:02;;;;;;;16.83;6.63;;;15.40;72.60;;;;;;5053777;28;20444;-66
2021/11/08 11:30:33;;;;;;;12.30;5.70;;;15.60;71.20;;;;;;5053564;28;20480;-66
2021/11/08 11:33:04;;;;;;;23.50;7.23;;;15.80;70.40;;;;;;5053352;28;20473;-66
2021/11/08 11:35:40;;;;;;;24.70;7.70;;;16.00;68.20;;;;;;5053255;28;20472;-66
2021/11/08 11:38:13;;;;;;;20.13;7.43;;;16.00;68.50;;;;;;5053541;28;20780;-66
2021/11/08 11:40:48;;;;;;;16.77;6.30;;;16.00;68.80;;;;;;5053340;28;20485;-66
2021/11/08 11:43:18;;;;;;;14.43;4.90;;;16.10;68.60;;;;;;5052781;28;20465;-66
2021/11/08 11:45:57;;;;;;;24.80;7.20;;;16.00;67.70;;;;;;5053086;28;20537;-66
2021/11/08 11:48:30;;;;;;;27.90;6.73;;;15.80;67.20;;;;;;5053476;28;20781;-66
2021/11/08 11:51:06;;;;;;;23.07;5.70;;;15.70;68.30;;;;;;5054165;28;20883;-66
2021/11/08 11:53:37;;;;;;;17.47;6.00;;;15.70;68.40;;;;;;5053104;28;20548;-66
2021/11/08 11:56:09;;;;;;;19.67;7.10;;;15.60;68.20;;;;;;5052935;28;20438;-66
2021/11/08 11:58:38;;;;;;;18.83;6.00;;;15.60;69.00;;;;;;5053047;28;20910;-66
2021/11/08 12:01:09;;;;;;;23.23;6.20;;;15.60;68.60;;;;;;5052805;28;20572;-66
2021/11/08 12:03:39;;;;;;;14.97;5.90;;;15.50;67.70;;;;;;5053233;28;20991;-67
2021/11/08 12:06:15;;;;;;;15.43;6.13;;;15.40;67.50;;;;;;5053655;28;20450;-67
2021/11/08 12:08:46;;;;;;;16.30;5.87;;;15.30;68.80;;;;;;5053278;28;20448;-67
2021/11/08 12:11:14;;;;;;;19.30;5.80;;;15.40;69.50;;;;;;5053689;28;20437;-66
2021/11/08 12:13:56;;;;;;;23.57;7.23;;;15.40;68.20;;;;;;5053156;28;20477;-66
2021/11/08 12:16:33;;;;;;;16.53;5.93;;;15.10;68.00;;;;;;5053374;28;20437;-66
2021/11/08 12:19:02;;;;;;;23.87;6.43;;;15.00;70.00;;;;;;5053609;28;20437;-66
2021/11/08 12:21:35;;;;;;;18.40;6.43;;;15.00;71.00;;;;;;5053208;28;20484;-66
2021/11/08 12:24:17;;;;;;;21.53;5.80;;;15.00;70.70;;;;;;5053966;28;20485;-66
2021/11/08 12:26:48;;;;;;;23.60;6.10;;;15.00;71.60;;;;;;5052985;28;20461;-66
2021/11/08 12:29:20;;;;;;;18.87;5.37;;;14.90;71.60;;;;;;5053190;28;20421;-66
2021/11/08 12:31:49;;;;;;;16.00;5.77;;;14.80;72.50;;;;;;5053084;28;20484;-66
2021/11/08 12:34:23;;;;;;;14.27;5.10;;;14.80;73.30;;;;;;5053126;28;20473;-66
2021/11/08 12:37:01;;;;;;;21.47;5.80;;;14.80;73.50;;;;;;5052847;28;20434;-66
2021/11/08 12:39:29;;;;;;;15.03;5.77;;;14.70;73.80;;;;;;5052982;28;20432;-66
2021/11/08 12:42:08;;;;;;;19.00;5.70;;;14.70;73.80;;;;;;5052751;28;20465;-66
2021/11/08 12:44:42;;;;;;;17.60;5.27;;;14.60;73.20;;;;;;5053046;28;20438;-66
2021/11/08 12:47:11;;;;;;;16.13;6.13;;;14.50;72.50;;;;;;5052894;28;20433;-66
2021/11/08 12:49:50;;;;;;;17.87;5.70;;;14.50;72.80;;;;;;5053176;28;20909;-66
2021/11/08 12:52:27;;;;;;;14.90;5.33;;;14.40;73.80;;;;;;5054120;28;20495;-66
2021/11/08 12:54:57;;;;;;;19.70;6.40;;;14.40;74.40;;;;;;5056922;28;20787;-66
2021/11/08 12:57:30;;;;;;;15.67;5.17;;;14.40;74.10;;;;;;5056383;28;20804;-66
2021/11/08 13:00:00;;;;;;;18.00;5.63;;;14.40;73.30;;;;;;5056475;28;20859;-66
2021/11/08 13:02:33;;;;;;;16.43;5.43;;;14.30;72.40;;;;;;5056393;28;20476;-66
2021/11/08 13:05:03;;;;;;;18.53;5.80;;;14.30;73.30;;;;;;5055850;28;20540;-66
2021/11/08 13:07:36;;;;;;;20.93;5.63;;;14.20;74.50;;;;;;5056390;28;20459;-66
2021/11/08 13:10:19;;;;;;;17.33;5.80;;;14.20;75.00;;;;;;5056617;28;20426;-66
2021/11/08 13:12:47;;;;;;;19.40;5.73;;;14.30;75.10;;;;;;5056323;28;20917;-66
2021/11/08 13:15:22;;;;;;;15.90;4.57;;;14.30;74.90;;;;;;5056373;28;20465;-66
2021/11/08 13:17:53;;;;;;;19.70;4.73;;;14.40;75.40;;;;;;5055906;28;20433;-66
2021/11/08 13:20:24;;;;;;;19.33;4.80;;;14.50;76.40;;;;;;5056201;28;20835;-66
2021/11/08 13:22:58;;;;;;;16.53;5.30;;;14.60;75.30;;;;;;5055741;28;20564;-66
2021/11/08 13:25:30;;;;;;;23.13;5.53;;;14.70;74.70;;;;;;5055895;28;20898;-66
2021/11/08 13:28:02;;;;;;;10.17;3.70;;;14.70;74.00;;;;;;5055779;28;20866;-66
2021/11/08 13:30:38;;;;;;;14.00;4.10;;;14.70;73.50;;;;;;5055989;28;20514;-66
2021/11/08 13:33:07;;;;;;;18.50;4.90;;;14.80;73.20;;;;;;5055816;28;20979;-66
2021/11/08 13:35:39;;;;;;;13.87;4.90;;;14.90;72.60;;;;;;5055596;28;20979;-66
2021/11/08 13:38:15;;;;;;;15.73;4.90;;;14.80;72.70;;;;;;5055953;28;20434;-66
2021/11/08 13:40:49;;;;;;;17.33;5.03;;;14.90;73.10;;;;;;5055491;28;21086;-66
2021/11/08 13:43:21;;;;;;;17.57;5.00;;;14.90;73.20;;;;;;5055478;28;20480;-66
2021/11/08 13:45:56;;;;;;;14.97;5.40;;;14.90;73.00;;;;;;5055935;28;20438;-66
2021/11/08 13:48:30;;;;;;;20.43;5.50;;;14.90;72.50;;;;;;5055603;28;20471;-66
2021/11/08 13:51:01;;;;;;;17.43;6.17;;;14.80;72.40;;;;;;5055390;28;20488;-66
2021/11/08 13:53:35;;;;;;;20.20;6.03;;;14.70;72.40;;;;;;5055082;28;20466;-66
2021/11/08 13:56:07;;;;;;;18.00;5.33;;;14.60;72.80;;;;;;5055016;28;20472;-66
2021/11/08 13:58:36;;;;;;;20.40;5.37;;;14.60;72.90;;;;;;5054608;28;20449;-66
2021/11/08 14:01:15;;;;;;;15.10;4.30;;;14.60;73.30;;;;;;5055194;28;20477;-66
2021/11/08 14:03:45;;;;;;;16.67;4.47;;;14.50;73.10;;;;;;5054898;28;20464;-66
2021/11/08 14:06:16;;;;;;;16.80;6.10;;;14.50;71.80;;;;;;5054779;28;20450;-67
2021/11/08 14:08:51;;;;;;;16.40;4.60;;;14.30;72.00;;;;;;5055028;28;20445;-66
2021/11/08 14:11:34;;;;;;;12.17;4.20;;;14.20;72.80;;;;;;5054903;28;20457;-66
2021/11/08 14:14:07;;;;;;;15.40;4.53;;;14.10;72.80;;;;;;5054866;28;20474;-66
2021/11/08 14:16:43;;;;;;;20.03;4.53;;;14.00;72.40;;;;;;5054678;28;20441;-66
2021/11/08 14:19:12;;;;;;;15.57;4.43;;;13.80;72.20;;;;;;5054690;28;20464;-66
2021/11/08 14:21:41;;;;;;;16.67;4.60;;;13.70;73.30;;;;;;5054714;28;20849;-66
2021/11/08 14:24:12;;;;;;;20.23;5.93;;;13.60;73.20;;;;;;5054890;28;20995;-66
2021/11/08 14:26:45;;;;;;;13.43;4.70;;;13.50;73.50;;;;;;5055212;28;20433;-66
2021/11/08 14:29:15;;;;;;;18.43;5.20;;;13.40;74.40;;;;;;5054811;28;20430;-66
2021/11/08 14:31:43;;;;;;;28.20;6.03;;;13.40;74.70;;;;;;5054830;28;20433;-66